Flight Track Log - Related Links

Times and Time Zones

All times are in EST time to prevent confusion due to time zone crossing. See the SWA4450 flight status page for this flight to view local times or setup timezone preferences in your user account.

Time Position Orientation Groundspeed Altitude Reporting Facility
EST Latitude Longitude Course Direction KTS MPH feet Rate Location/Type
02:22PM 28.5842 -81.2589 North 275 316 6,500  Level Jacksonville Center
02:23PM 28.6614 -81.2767 349° North 288 331 10,100 3,150 Climbing Jacksonville Center
02:24PM 28.7556 -81.2989 348° North 308 354 12,800 3,250 Climbing Jacksonville Center
02:25PM 29.1851 -81.3872 354° North  Level FlightAware Approximate
02:25PM 28.8542 -81.3256 347° North 339 390 16,600  Level Jacksonville Center
02:26PM 29.3143 -81.4000 North  Level FlightAware Approximate
02:26PM 28.9547 -81.3525 347° North 357 411 19,000  Level Jacksonville Center
02:27PM 29.4429 -81.4167 North  Level FlightAware Approximate
02:27PM 29.0636 -81.3817 347° North 391 450 21,700  Level Jacksonville Center
02:28PM 29.1786 -81.3989 353° North 412 474 24,000 1,150 Climbing Jacksonville Center
02:29PM 29.2750 -81.4333 343° North 404 465 24,000  Level Jacksonville Center
02:30PM 29.3819 -81.4744 341° North 404 465 24,000  Level Jacksonville Center
02:31PM 29.4867 -81.5208 339° North 404 465 24,000 1,900 Level Jacksonville Center
02:33PM 29.6858 -81.6089 339° North 388 447 29,700 2,333 Climbing Jacksonville Center
02:34PM 29.8067 -81.5881 North 398 458 31,000 1,300 Climbing Jacksonville Center
02:35PM 29.9506 -81.5669 North 445 512 32,300 1,750 Climbing Jacksonville Center
02:36PM 30.0800 -81.5483 North 464 534 34,500 1,950 Climbing Jacksonville Center
02:37PM 30.2092 -81.5272 North 464 534 36,200 1,350 Climbing Jacksonville Center
02:38PM 30.3364 -81.5086 North 464 534 37,200 1,050 Climbing Jacksonville Center
02:39PM 30.4678 -81.4994 North 464 534 38,300 900 Climbing Jacksonville Center
02:40PM 30.5992 -81.4881 North 464 534 39,000 350 Climbing Jacksonville Center
02:41PM 30.7283 -81.4789 North 464 534 39,000  Level Jacksonville Center
02:42PM 30.8578 -81.4697 North 464 534 39,000  Level Jacksonville Center
02:43PM 30.9892 -81.4603 North 464 534 39,000  Level Jacksonville Center
02:44PM 31.1228 -81.4486 North 464 534 39,000  Level Jacksonville Center
02:45PM 31.2542 -81.4369 North 472 543 39,000  Level Jacksonville Center
02:46PM 31.3853 -81.4008 13° North 482 555 39,000 500 Level Jacksonville Center
02:47PM 31.5142 -81.3450 20° North 487 560 40,000 1,000 Climbing Jacksonville Center
02:48PM 31.6261 -81.2822 26° Northeast 496 571 41,000 500 Climbing Jacksonville Center
02:49PM 31.7669 -81.2042 25° Northeast 496 571 41,000  Level Jacksonville Center
02:50PM 31.8933 -81.1308 26° Northeast 505 581 41,000  Level Jacksonville Center
02:51PM 32.0197 -81.0547 27° Northeast 505 581 41,000  Level Jacksonville Center
02:52PM 32.1522 -80.9858 24° Northeast 505 581 41,000  Level Jacksonville Center
02:53PM 32.2825 -80.9144 25° Northeast 500 575 41,000  Level Jacksonville Center
02:54PM 32.4089 -80.8428 26° Northeast 505 581 41,000  Level Jacksonville Center
02:55PM 32.5247 -80.7761 26° Northeast 505 581 41,000  Level Jacksonville Center
02:56PM 32.6508 -80.7042 26° Northeast 500 575 41,000  Level Jacksonville Center
02:57PM 32.7789 -80.6319 25° Northeast 500 575 41,000  Level Jacksonville Center
02:58PM 32.9050 -80.5594 26° Northeast 505 581 41,000  Level Jacksonville Center
02:59PM 33.0331 -80.4892 25° Northeast 505 581 41,000  Level Jacksonville Center
03:00PM 33.1756 -80.4083 25° Northeast 500 575 41,000  Level Jacksonville Center
03:01PM 33.3056 -80.3328 26° Northeast 500 575 41,000  Level Jacksonville Center
03:02PM 33.4292 -80.2569 27° Northeast 505 581 41,000  Level Jacksonville Center
03:03PM 33.5569 -80.1808 26° Northeast 505 581 41,000  Level Jacksonville Center
03:04PM 33.6825 -80.1097 25° Northeast 505 581 41,000  Level Jacksonville Center
03:05PM 33.8081 -80.0333 27° Northeast 505 581 41,000  Level Jacksonville Center
03:06PM 34.0144 -79.9133 26° Northeast 489 563 41,000  Level Washington Center
03:07PM 34.1361 -79.8394 27° Northeast 494 568 41,000  Level Washington Center
03:08PM 34.2533 -79.7650 28° Northeast 494 568 41,000  Level Washington Center
03:09PM 34.3811 -79.6936 25° Northeast 499 574 41,000  Level Washington Center
03:10PM 34.5028 -79.6089 30° Northeast 499 574 41,000  Level Washington Center
03:11PM 34.6250 -79.5114 33° Northeast 509 586 41,000  Level Washington Center
03:12PM 34.7450 -79.4136 34° Northeast 514 592 41,000  Level Washington Center
03:13PM 34.8647 -79.3206 33° Northeast 514 592 41,000  Level Washington Center
03:14PM 34.9869 -79.2197 34° Northeast 519 597 41,000  Level Washington Center
03:15PM 35.1086 -79.1211 34° Northeast 519 597 41,000  Level Washington Center
03:16PM 35.2283 -79.0247 33° Northeast 519 597 41,000  Level Washington Center
03:17PM 35.3522 -78.9256 33° Northeast 524 603 41,000  Level Washington Center
03:18PM 35.4739 -78.8286 33° Northeast 524 603 41,000  Level Washington Center
03:19PM 35.6103 -78.7192 33° Northeast 524 603 41,000  Level Washington Center
03:20PM 35.7339 -78.6139 35° Northeast 529 609 41,000  Level Washington Center
03:21PM 35.8533 -78.5108 35° Northeast 529 609 41,000  Level Washington Center
03:22PM 35.9769 -78.4103 33° Northeast 524 603 41,000  Level Washington Center
03:23PM 36.0961 -78.3117 34° Northeast 524 603 41,000  Level Washington Center
03:24PM 36.2194 -78.2078 34° Northeast 524 603 41,000  Level Washington Center
03:25PM 36.3425 -78.1061 34° Northeast 524 603 41,000  Level Washington Center
03:26PM 36.4614 -78.0014 35° Northeast 524 603 41,000  Level Washington Center
03:27PM 36.5825 -77.8967 35° Northeast 524 603 41,000  Level Washington Center
03:28PM 36.7075 -77.7914 34° Northeast 524 603 41,000  Level Washington Center
03:29PM 36.8283 -77.6886 34° Northeast 524 603 41,000  Level Washington Center
03:30PM 36.9489 -77.5853 34° Northeast 524 603 41,000  Level Washington Center
03:31PM 37.0694 -77.4817 34° Northeast 524 603 41,000  Level Washington Center
03:32PM 37.1900 -77.3750 35° Northeast 524 603 41,000  Level Washington Center
03:33PM 37.3106 -77.2736 34° Northeast 524 603 41,000  Level Washington Center
03:34PM 37.4331 -77.1636 35° Northeast 524 603 41,000  Level Washington Center
03:35PM 37.5572 -77.0614 33° Northeast 534 615 41,000  Level Washington Center
03:36PM 37.6753 -76.9536 36° Northeast 534 615 41,000  Level Washington Center
03:37PM 37.7975 -76.8453 35° Northeast 528 608 41,000  Level Washington Center
03:38PM 37.9153 -76.7394 35° Northeast 523 602 41,000  Level Washington Center
03:39PM 38.0372 -76.6306 35° Northeast 523 602 41,000  Level Washington Center
03:40PM 38.1569 -76.5239 35° Northeast 523 602 41,000  Level Washington Center
03:41PM 38.2789 -76.4169 35° Northeast 523 602 41,000  Level Washington Center
03:42PM 38.3858 -76.3200 35° Northeast 523 602 41,000  Level Washington Center
03:43PM 38.5072 -76.2100 35° Northeast 523 602 41,000  Level Washington Center
03:44PM 38.6350 -76.0992 34° Northeast 538 619 41,000  Level Washington Center
03:45PM 38.7583 -75.9883 35° Northeast 543 625 41,000  Level Washington Center
03:46PM 38.8817 -75.8742 36° Northeast 543 625 41,000  Level Washington Center
03:47PM 39.0028 -75.7572 37° Northeast 543 625 41,000  Level Washington Center
03:48PM 39.1114 -75.6022 48° Northeast 559 643 41,000  Level Washington Center
03:49PM 39.2092 -75.4336 53° Northeast 570 656 41,000  Level Washington Center
03:50PM 39.3067 -75.2617 54° Northeast 583 671 41,000  Level Washington Center
03:51PM 39.4042 -75.0947 53° Northeast 583 671 41,000  Level Washington Center
03:52PM 39.5011 -74.9244 54° Northeast 583 671 41,000  Level Washington Center
03:53PM 39.5961 -74.7567 54° Northeast 583 671 41,000  Level Washington Center
03:54PM 39.6925 -74.5831 54° Northeast 583 671 41,000 -393 Level Washington Center
03:55PM 39.7972 -74.3950 54° Northeast 583 671 40,200 -853 Descending Washington Center
03:58PM 39.9897 -74.0508 54° Northeast 587 676 38,300 -974 Descending Boston Center
03:59PM 40.1033 -73.8419 55° Northeast 588 677 37,100 -1,024 Descending Boston Center
04:00PM 40.1983 -73.6706 54° Northeast 585 673 36,200 -927 Descending Boston Center
04:01PM 40.2761 -73.4847 61° Northeast 584 672 35,200 -1,220 Descending Boston Center
04:02PM 40.3286 -73.3236 67° East 599 689 33,700 -1,854 Descending Boston Center
04:03PM 40.4094 -73.0789 66° East 609 701 31,400 -2,390 Descending Boston Center
04:04PM 40.4831 -72.8839 64° Northeast 598 688 28,800 -2,829 Descending Boston Center
04:05PM 40.5794 -72.7225 52° Northeast 565 650 25,600 -2,878 Descending Boston Center
04:06PM 40.6725 -72.5644 52° Northeast 550 633 22,900 -2,829 Descending Boston Center
04:07PM 40.7761 -72.3908 52° Northeast 517 595 19,800 -2,839 Descending Boston Center
04:07PM 40.8206 -72.3144 52° Northeast 504 580 18,500 -2,459 Descending Boston Center
04:08PM 40.8658 -72.2369 52° Northeast 497 572 17,300 -2,512 Descending Boston Center
04:08PM 40.8839 -72.2125 46° Northeast 496 571 16,700 -2,656 Descending Boston Center
04:09PM 40.9447 -72.1042 53° Northeast 468 539 14,600 -2,600 Descending Boston Center
04:09PM 40.9597 -72.0808 50° Northeast 448 516 14,100 -2,323 Descending Boston Center
04:10PM 41.0189 -71.9775 53° Northeast 445 512 12,200 -2,557 Descending Boston Center
04:10PM 41.0342 -71.9542 49° Northeast 428 493 11,500 -1,667 Descending Boston Center
04:11PM 41.1050 -71.8344 52° Northeast 371 427 10,200 -989 Descending Boston Center
04:13PM 41.2239 -71.6489 50° Northeast 319 367 8,500 -923 Descending Boston Center
04:14PM 41.2792 -71.5603 50° Northeast 315 362 7,400 -1,091 Descending Boston Center
04:15PM 41.3347 -71.4686 51° Northeast 316 364 6,300 -1,140 Descending Boston Center
04:16PM 41.3942 -71.3900 45° Northeast 296 341 5,100 -639 Descending Boston Center
04:17PM 41.4708 -71.3747 North 254 292 5,000 -49 Descending Boston Center
04:18PM 41.5408 -71.3597 North 260 299 5,000  Level Boston Center
04:19PM 41.6108 -71.3450 North 262 302 5,000 -545 Level Boston Center
04:20PM 41.6808 -71.3300 North 254 292 3,900 -1,041 Descending Boston Center
04:21PM 41.7483 -71.2853 26° Northeast 250 288 2,900 -984 Descending Boston Center
04:22PM 41.7842 -71.3417 310° West 206 237 1,900 -843 Descending Boston Center
04:23PM 41.7678 -71.3906 246° West 139 160 1,200 -843 Descending Boston Center
04:24PM 41.7367 -71.4167 212° Southwest 128 147 200 -984 Descending Boston Center

Login

Don't have an account? Register now (free) for customized features, flight alerts, and more!